MAS208 WMKK-VAAH
Flight info
| Callsign | MAS208 |
|---|---|
| Flight time | N/A |
| Altitude | 36000 |
| Route | IBUKU2D IBUKU Y504 GUNIP N571 VAMPI Y338 LEKIR L510 AGEGA N877 UXENA/N0461F380 N877 NNP N895 BODAR |
| Aircraft | B38M/M-SDE1FGHILORVWXY/HB1 |
Departure
| Time | N/A |
|---|---|
| Airport | Kuala Lumpur International Airport (WMKK) |
Arrival
| Time | 2026-04-20 21:38 |
|---|---|
| Airport | Sardar Vallabh Patel International Airport (VAAH) |
| Time | Latitude | Longitude | Altitude | Speed | Heading |
|---|---|---|---|---|---|
| 2026-04-20 21:28 | 23.06198 | 73.02910 | 4542 ft | 244 kts | 294° |
| 2026-04-20 21:28 | 23.06910 | 73.01233 | 4194 ft | 244 kts | 294° |
| 2026-04-20 21:28 | 23.07633 | 72.99578 | 3971 ft | 239 kts | 300° |
| 2026-04-20 21:28 | 23.08708 | 72.98210 | 3737 ft | 240 kts | 314° |
| 2026-04-20 21:29 | 23.09885 | 72.96920 | 3478 ft | 240 kts | 313° |
| 2026-04-20 21:29 | 23.11055 | 72.95637 | 3226 ft | 238 kts | 313° |
| 2026-04-20 21:29 | 23.12211 | 72.94370 | 2970 ft | 234 kts | 314° |
| 2026-04-20 21:29 | 23.13352 | 72.93120 | 2717 ft | 231 kts | 314° |
| 2026-04-20 21:30 | 23.14474 | 72.91891 | 2475 ft | 227 kts | 314° |
| 2026-04-20 21:30 | 23.15577 | 72.90682 | 2241 ft | 223 kts | 314° |
| 2026-04-20 21:30 | 23.16513 | 72.89381 | 2058 ft | 215 kts | 295° |
| 2026-04-20 21:30 | 23.16970 | 72.87918 | 2056 ft | 200 kts | 288° |
| 2026-04-20 21:31 | 23.17450 | 72.86570 | 2057 ft | 182 kts | 297° |
| 2026-04-20 21:31 | 23.18009 | 72.85371 | 2039 ft | 177 kts | 297° |
| 2026-04-20 21:31 | 23.18532 | 72.84221 | 2014 ft | 178 kts | 297° |
| 2026-04-20 21:31 | 23.19089 | 72.82978 | 1998 ft | 177 kts | 296° |
| 2026-04-20 21:32 | 23.19625 | 72.81768 | 1995 ft | 178 kts | 296° |
| 2026-04-20 21:32 | 23.20157 | 72.80555 | 1993 ft | 177 kts | 296° |
| 2026-04-20 21:32 | 23.20675 | 72.79365 | 1985 ft | 177 kts | 295° |
| 2026-04-20 21:32 | 23.20878 | 72.78086 | 1931 ft | 175 kts | 261° |
| 2026-04-20 21:33 | 23.20324 | 72.76991 | 1950 ft | 159 kts | 230° |
| 2026-04-20 21:33 | 23.19571 | 72.76171 | 2028 ft | 153 kts | 230° |
| 2026-04-20 21:33 | 23.18808 | 72.75343 | 2101 ft | 155 kts | 230° |
| 2026-04-20 21:33 | 23.18040 | 72.74514 | 2071 ft | 155 kts | 230° |
| 2026-04-20 21:34 | 23.17272 | 72.73687 | 2030 ft | 155 kts | 229° |
| 2026-04-20 21:34 | 23.16765 | 72.73143 | 2006 ft | 154 kts | 229° |
| 2026-04-20 21:34 | 23.15753 | 72.72054 | 1935 ft | 155 kts | 230° |
| 2026-04-20 21:34 | 23.14988 | 72.71234 | 1778 ft | 154 kts | 230° |
| 2026-04-20 21:35 | 23.14486 | 72.70695 | 1655 ft | 153 kts | 230° |
| 2026-04-20 21:35 | 23.13731 | 72.69885 | 1479 ft | 152 kts | 230° |
| 2026-04-20 21:35 | 23.12983 | 72.69080 | 1291 ft | 152 kts | 230° |
| 2026-04-20 21:35 | 23.12231 | 72.68272 | 1104 ft | 152 kts | 229° |
| 2026-04-20 21:36 | 23.11480 | 72.67466 | 921 ft | 152 kts | 227° |
| 2026-04-20 21:36 | 23.10733 | 72.66663 | 747 ft | 152 kts | 226° |
| 2026-04-20 21:36 | 23.09998 | 72.65850 | 577 ft | 150 kts | 225° |
| 2026-04-20 21:36 | 23.09246 | 72.65064 | 363 ft | 152 kts | 224° |
| 2026-04-20 21:37 | 23.08502 | 72.64271 | 201 ft | 140 kts | 225° |
| 2026-04-20 21:37 | 23.07971 | 72.63710 | 200 ft | 80 kts | 224° |
| 2026-04-20 21:37 | 23.07626 | 72.63340 | 204 ft | 65 kts | 224° |
| 2026-04-20 21:37 | 23.07320 | 72.63014 | 203 ft | 54 kts | 224° |
| 2026-04-20 21:38 | 23.07188 | 72.62838 | 201 ft | 19 kts | 258° |
| 2026-04-20 21:38 | 23.07161 | 72.62694 | 195 ft | 20 kts | 258° |
| 2026-04-20 21:38 | 23.07165 | 72.62587 | 202 ft | 12 kts | 312° |
| 2026-04-20 21:38 | 23.07231 | 72.62518 | 193 ft | 14 kts | 316° |
| 2026-04-20 21:39 | 23.07294 | 72.62481 | 192 ft | 6 kts | 18° |
| 2026-04-20 21:39 | 23.07322 | 72.62508 | 192 ft | 7 kts | 46° |
| 2026-04-20 21:39 | 23.07352 | 72.62541 | 198 ft | 7 kts | 45° |
| 2026-04-20 21:39 | 23.07378 | 72.62552 | 192 ft | 4 kts | 343° |
| 2026-04-20 21:40 | 23.07407 | 72.62527 | 188 ft | 5 kts | 315° |
| 2026-04-20 21:40 | 23.07419 | 72.62513 | 190 ft | 1 kts | 316° |
| 2026-04-20 21:40 | 23.07421 | 72.62512 | 195 ft | 0 kts | 316° |